sensor_id;sensor_type;location;lat;lon;timestamp;P1;durP1;ratioP1;P2;durP2;ratioP2
71959;SDS011;59832;51.146;14.024;2024-01-15T00:01:30;15.90;;;8.57;;
71959;SDS011;59832;51.146;14.024;2024-01-15T00:03:56;11.05;;;7.15;;
71959;SDS011;59832;51.146;14.024;2024-01-15T00:06:23;17.05;;;8.07;;
71959;SDS011;59832;51.146;14.024;2024-01-15T00:08:49;15.10;;;7.75;;
71959;SDS011;59832;51.146;14.024;2024-01-15T00:11:16;13.88;;;8.10;;
71959;SDS011;59832;51.146;14.024;2024-01-15T00:13:42;14.00;;;7.87;;
71959;SDS011;59832;51.146;14.024;2024-01-15T00:16:09;12.07;;;7.35;;
71959;SDS011;59832;51.146;14.024;2024-01-15T00:18:36;13.52;;;7.88;;
71959;SDS011;59832;51.146;14.024;2024-01-15T00:21:03;11.45;;;7.05;;
71959;SDS011;59832;51.146;14.024;2024-01-15T00:23:30;17.92;;;7.80;;
71959;SDS011;59832;51.146;14.024;2024-01-15T00:25:56;13.00;;;7.35;;
71959;SDS011;59832;51.146;14.024;2024-01-15T00:28:22;14.43;;;7.13;;
71959;SDS011;59832;51.146;14.024;2024-01-15T00:30:49;11.30;;;6.65;;
71959;SDS011;59832;51.146;14.024;2024-01-15T00:33:16;13.98;;;7.35;;
71959;SDS011;59832;51.146;14.024;2024-01-15T00:35:43;15.03;;;7.33;;
71959;SDS011;59832;51.146;14.024;2024-01-15T00:38:09;11.90;;;7.50;;
71959;SDS011;59832;51.146;14.024;2024-01-15T00:40:35;14.80;;;7.55;;
71959;SDS011;59832;51.146;14.024;2024-01-15T00:43:02;14.73;;;7.50;;
71959;SDS011;59832;51.146;14.024;2024-01-15T00:45:28;14.20;;;7.47;;
71959;SDS011;59832;51.146;14.024;2024-01-15T00:47:55;12.77;;;7.55;;
71959;SDS011;59832;51.146;14.024;2024-01-15T00:52:49;15.70;;;8.07;;
71959;SDS011;59832;51.146;14.024;2024-01-15T00:55:15;16.35;;;8.05;;
71959;SDS011;59832;51.146;14.024;2024-01-15T00:57:42;14.05;;;7.35;;
71959;SDS011;59832;51.146;14.024;2024-01-15T01:00:08;13.70;;;7.68;;
71959;SDS011;59832;51.146;14.024;2024-01-15T01:02:35;12.50;;;7.95;;
71959;SDS011;59832;51.146;14.024;2024-01-15T01:05:02;13.77;;;7.40;;
71959;SDS011;59832;51.146;14.024;2024-01-15T01:07:29;14.00;;;7.93;;
71959;SDS011;59832;51.146;14.024;2024-01-15T01:09:56;12.30;;;7.13;;
71959;SDS011;59832;51.146;14.024;2024-01-15T01:12:22;15.05;;;7.82;;
71959;SDS011;59832;51.146;14.024;2024-01-15T01:14:49;13.68;;;7.50;;
71959;SDS011;59832;51.146;14.024;2024-01-15T01:17:15;16.47;;;8.40;;
71959;SDS011;59832;51.146;14.024;2024-01-15T01:19:42;16.15;;;7.85;;
71959;SDS011;59832;51.146;14.024;2024-01-15T01:22:09;15.38;;;7.05;;
71959;SDS011;59832;51.146;14.024;2024-01-15T01:24:35;14.05;;;7.63;;
71959;SDS011;59832;51.146;14.024;2024-01-15T01:27:02;12.98;;;7.70;;
71959;SDS011;59832;51.146;14.024;2024-01-15T01:29:28;14.00;;;7.50;;
71959;SDS011;59832;51.146;14.024;2024-01-15T01:31:55;15.32;;;7.80;;
71959;SDS011;59832;51.146;14.024;2024-01-15T01:34:22;13.35;;;7.45;;
71959;SDS011;59832;51.146;14.024;2024-01-15T01:36:49;15.93;;;7.73;;
71959;SDS011;59832;51.146;14.024;2024-01-15T01:39:16;15.40;;;8.00;;
71959;SDS011;59832;51.146;14.024;2024-01-15T01:41:42;12.55;;;7.90;;
71959;SDS011;59832;51.146;14.024;2024-01-15T01:44:09;13.48;;;7.28;;
71959;SDS011;59832;51.146;14.024;2024-01-15T01:46:36;15.13;;;8.35;;
71959;SDS011;59832;51.146;14.024;2024-01-15T01:49:06;14.30;;;7.88;;
71959;SDS011;59832;51.146;14.024;2024-01-15T01:51:36;14.82;;;7.97;;
71959;SDS011;59832;51.146;14.024;2024-01-15T01:54:05;16.67;;;8.15;;
71959;SDS011;59832;51.146;14.024;2024-01-15T01:56:34;14.65;;;7.22;;
71959;SDS011;59832;51.146;14.024;2024-01-15T01:59:01;15.75;;;8.48;;
71959;SDS011;59832;51.146;14.024;2024-01-15T02:01:30;13.75;;;7.88;;
71959;SDS011;59832;51.146;14.024;2024-01-15T02:03:57;13.93;;;8.00;;
71959;SDS011;59832;51.146;14.024;2024-01-15T02:06:24;17.95;;;8.50;;
71959;SDS011;59832;51.146;14.024;2024-01-15T02:08:51;14.25;;;8.45;;
71959;SDS011;59832;51.146;14.024;2024-01-15T02:11:17;18.17;;;8.57;;
71959;SDS011;59832;51.146;14.024;2024-01-15T02:13:44;12.13;;;8.13;;
71959;SDS011;59832;51.146;14.024;2024-01-15T02:16:10;20.03;;;9.10;;
71959;SDS011;59832;51.146;14.024;2024-01-15T02:18:40;19.58;;;8.80;;
71959;SDS011;59832;51.146;14.024;2024-01-15T02:21:11;18.58;;;8.55;;
71959;SDS011;59832;51.146;14.024;2024-01-15T02:23:38;17.35;;;8.60;;
71959;SDS011;59832;51.146;14.024;2024-01-15T02:26:05;14.52;;;8.00;;
71959;SDS011;59832;51.146;14.024;2024-01-15T02:28:32;14.27;;;8.05;;
71959;SDS011;59832;51.146;14.024;2024-01-15T02:30:59;16.67;;;8.95;;
71959;SDS011;59832;51.146;14.024;2024-01-15T02:33:26;16.15;;;8.73;;
71959;SDS011;59832;51.146;14.024;2024-01-15T02:35:52;15.23;;;8.75;;
71959;SDS011;59832;51.146;14.024;2024-01-15T02:38:19;14.65;;;8.05;;
71959;SDS011;59832;51.146;14.024;2024-01-15T02:40:45;16.23;;;8.48;;
71959;SDS011;59832;51.146;14.024;2024-01-15T02:45:40;15.35;;;8.75;;
71959;SDS011;59832;51.146;14.024;2024-01-15T02:48:06;17.52;;;9.63;;
71959;SDS011;59832;51.146;14.024;2024-01-15T02:50:33;18.25;;;10.02;;
71959;SDS011;59832;51.146;14.024;2024-01-15T02:52:59;17.90;;;9.38;;
71959;SDS011;59832;51.146;14.024;2024-01-15T02:55:26;19.75;;;10.43;;
71959;SDS011;59832;51.146;14.024;2024-01-15T02:57:55;17.23;;;9.50;;
71959;SDS011;59832;51.146;14.024;2024-01-15T03:00:21;18.50;;;10.00;;
71959;SDS011;59832;51.146;14.024;2024-01-15T03:02:49;23.08;;;10.00;;
71959;SDS011;59832;51.146;14.024;2024-01-15T03:05:16;18.90;;;9.52;;
71959;SDS011;59832;51.146;14.024;2024-01-15T03:07:43;17.25;;;9.48;;
71959;SDS011;59832;51.146;14.024;2024-01-15T03:10:09;16.58;;;8.93;;
71959;SDS011;59832;51.146;14.024;2024-01-15T03:12:36;18.52;;;9.32;;
71959;SDS011;59832;51.146;14.024;2024-01-15T03:15:03;17.92;;;8.93;;
71959;SDS011;59832;51.146;14.024;2024-01-15T03:17:30;20.42;;;9.73;;
71959;SDS011;59832;51.146;14.024;2024-01-15T03:19:56;19.58;;;9.32;;
71959;SDS011;59832;51.146;14.024;2024-01-15T03:22:23;15.13;;;8.70;;
71959;SDS011;59832;51.146;14.024;2024-01-15T03:24:49;19.52;;;9.63;;
71959;SDS011;59832;51.146;14.024;2024-01-15T03:27:16;21.35;;;9.50;;
71959;SDS011;59832;51.146;14.024;2024-01-15T03:29:42;22.63;;;9.83;;
71959;SDS011;59832;51.146;14.024;2024-01-15T03:32:09;20.75;;;9.82;;
71959;SDS011;59832;51.146;14.024;2024-01-15T03:34:35;17.23;;;8.70;;
71959;SDS011;59832;51.146;14.024;2024-01-15T03:37:02;19.77;;;9.38;;
71959;SDS011;59832;51.146;14.024;2024-01-15T03:39:29;21.33;;;9.63;;
71959;SDS011;59832;51.146;14.024;2024-01-15T03:41:56;18.85;;;8.82;;
71959;SDS011;59832;51.146;14.024;2024-01-15T03:44:22;17.42;;;8.98;;
71959;SDS011;59832;51.146;14.024;2024-01-15T03:46:49;17.35;;;9.32;;
71959;SDS011;59832;51.146;14.024;2024-01-15T03:49:15;18.30;;;9.85;;
71959;SDS011;59832;51.146;14.024;2024-01-15T03:51:42;19.95;;;10.27;;
71959;SDS011;59832;51.146;14.024;2024-01-15T03:54:08;18.00;;;9.63;;
71959;SDS011;59832;51.146;14.024;2024-01-15T03:56:35;20.38;;;9.88;;
71959;SDS011;59832;51.146;14.024;2024-01-15T03:59:01;20.40;;;9.88;;
71959;SDS011;59832;51.146;14.024;2024-01-15T04:01:28;19.85;;;10.25;;
71959;SDS011;59832;51.146;14.024;2024-01-15T04:03:54;19.27;;;9.93;;
71959;SDS011;59832;51.146;14.024;2024-01-15T04:06:21;19.17;;;10.55;;
71959;SDS011;59832;51.146;14.024;2024-01-15T04:08:48;21.85;;;10.45;;
71959;SDS011;59832;51.146;14.024;2024-01-15T04:11:14;20.35;;;10.65;;
71959;SDS011;59832;51.146;14.024;2024-01-15T04:13:40;19.70;;;10.23;;
71959;SDS011;59832;51.146;14.024;2024-01-15T04:16:08;20.38;;;10.77;;
71959;SDS011;59832;51.146;14.024;2024-01-15T04:18:34;21.45;;;10.57;;
71959;SDS011;59832;51.146;14.024;2024-01-15T04:21:01;19.13;;;10.10;;
71959;SDS011;59832;51.146;14.024;2024-01-15T04:23:30;18.55;;;10.40;;
71959;SDS011;59832;51.146;14.024;2024-01-15T04:25:57;18.30;;;9.80;;
71959;SDS011;59832;51.146;14.024;2024-01-15T04:28:23;17.52;;;9.38;;
71959;SDS011;59832;51.146;14.024;2024-01-15T04:30:50;19.80;;;9.98;;
71959;SDS011;59832;51.146;14.024;2024-01-15T04:33:16;19.27;;;10.30;;
71959;SDS011;59832;51.146;14.024;2024-01-15T04:35:43;19.98;;;9.77;;
71959;SDS011;59832;51.146;14.024;2024-01-15T04:38:09;22.13;;;10.23;;
71959;SDS011;59832;51.146;14.024;2024-01-15T04:40:36;20.30;;;10.30;;
71959;SDS011;59832;51.146;14.024;2024-01-15T04:43:02;22.55;;;10.35;;
71959;SDS011;59832;51.146;14.024;2024-01-15T04:45:29;19.00;;;9.70;;
71959;SDS011;59832;51.146;14.024;2024-01-15T04:47:56;19.08;;;9.82;;
71959;SDS011;59832;51.146;14.024;2024-01-15T04:50:23;19.35;;;9.25;;
71959;SDS011;59832;51.146;14.024;2024-01-15T04:52:50;17.20;;;9.40;;
71959;SDS011;59832;51.146;14.024;2024-01-15T04:55:16;19.73;;;9.90;;
71959;SDS011;59832;51.146;14.024;2024-01-15T04:57:43;20.38;;;9.57;;
71959;SDS011;59832;51.146;14.024;2024-01-15T05:00:10;18.45;;;8.82;;
71959;SDS011;59832;51.146;14.024;2024-01-15T05:02:37;19.27;;;9.13;;
71959;SDS011;59832;51.146;14.024;2024-01-15T05:05:03;17.75;;;8.88;;
71959;SDS011;59832;51.146;14.024;2024-01-15T05:07:30;17.58;;;8.45;;
71959;SDS011;59832;51.146;14.024;2024-01-15T05:09:56;23.02;;;9.07;;
71959;SDS011;59832;51.146;14.024;2024-01-15T05:12:23;18.15;;;8.43;;
71959;SDS011;59832;51.146;14.024;2024-01-15T05:14:49;16.05;;;8.32;;
71959;SDS011;59832;51.146;14.024;2024-01-15T05:17:16;20.58;;;8.88;;
71959;SDS011;59832;51.146;14.024;2024-01-15T05:19:42;18.02;;;8.40;;
71959;SDS011;59832;51.146;14.024;2024-01-15T05:22:09;15.77;;;7.82;;
71959;SDS011;59832;51.146;14.024;2024-01-15T05:24:35;17.67;;;8.15;;
71959;SDS011;59832;51.146;14.024;2024-01-15T05:27:02;17.15;;;8.43;;
71959;SDS011;59832;51.146;14.024;2024-01-15T05:29:28;16.50;;;8.35;;
71959;SDS011;59832;51.146;14.024;2024-01-15T05:31:55;16.00;;;7.85;;
71959;SDS011;59832;51.146;14.024;2024-01-15T05:34:24;15.20;;;8.07;;
71959;SDS011;59832;51.146;14.024;2024-01-15T05:36:50;15.75;;;8.10;;
71959;SDS011;59832;51.146;14.024;2024-01-15T05:39:17;15.48;;;8.30;;
71959;SDS011;59832;51.146;14.024;2024-01-15T05:41:47;17.92;;;7.82;;
71959;SDS011;59832;51.146;14.024;2024-01-15T05:44:13;18.38;;;8.68;;
71959;SDS011;59832;51.146;14.024;2024-01-15T05:46:40;15.77;;;8.45;;
71959;SDS011;59832;51.146;14.024;2024-01-15T05:49:07;20.35;;;8.93;;
71959;SDS011;59832;51.146;14.024;2024-01-15T05:51:33;23.60;;;8.47;;
71959;SDS011;59832;51.146;14.024;2024-01-15T05:54:00;16.88;;;8.20;;
71959;SDS011;59832;51.146;14.024;2024-01-15T05:56:26;18.30;;;8.43;;
71959;SDS011;59832;51.146;14.024;2024-01-15T05:58:53;13.88;;;7.30;;
71959;SDS011;59832;51.146;14.024;2024-01-15T06:01:19;16.23;;;7.70;;
71959;SDS011;59832;51.146;14.024;2024-01-15T06:03:46;13.93;;;7.60;;
71959;SDS011;59832;51.146;14.024;2024-01-15T06:06:12;16.23;;;7.78;;
71959;SDS011;59832;51.146;14.024;2024-01-15T06:08:39;19.40;;;8.23;;
71959;SDS011;59832;51.146;14.024;2024-01-15T06:11:06;13.77;;;7.18;;
71959;SDS011;59832;51.146;14.024;2024-01-15T06:13:33;16.60;;;7.53;;
71959;SDS011;59832;51.146;14.024;2024-01-15T06:15:59;14.50;;;7.43;;
71959;SDS011;59832;51.146;14.024;2024-01-15T06:18:25;18.27;;;8.40;;
71959;SDS011;59832;51.146;14.024;2024-01-15T06:20:52;17.23;;;7.65;;
71959;SDS011;59832;51.146;14.024;2024-01-15T06:23:19;17.83;;;7.18;;
71959;SDS011;59832;51.146;14.024;2024-01-15T06:25:47;16.42;;;7.88;;
71959;SDS011;59832;51.146;14.024;2024-01-15T06:28:13;13.05;;;6.55;;
71959;SDS011;59832;51.146;14.024;2024-01-15T06:30:40;14.90;;;6.80;;
71959;SDS011;59832;51.146;14.024;2024-01-15T06:33:06;13.73;;;7.37;;
71959;SDS011;59832;51.146;14.024;2024-01-15T06:35:33;12.95;;;7.30;;
71959;SDS011;59832;51.146;14.024;2024-01-15T06:38:00;14.82;;;7.60;;
71959;SDS011;59832;51.146;14.024;2024-01-15T06:40:27;13.85;;;7.13;;
71959;SDS011;59832;51.146;14.024;2024-01-15T06:42:53;17.13;;;7.65;;
71959;SDS011;59832;51.146;14.024;2024-01-15T06:45:20;13.18;;;6.93;;
71959;SDS011;59832;51.146;14.024;2024-01-15T06:47:46;18.05;;;7.30;;
71959;SDS011;59832;51.146;14.024;2024-01-15T06:50:12;13.77;;;7.25;;
71959;SDS011;59832;51.146;14.024;2024-01-15T06:52:39;18.08;;;6.53;;
71959;SDS011;59832;51.146;14.024;2024-01-15T06:55:05;14.80;;;7.35;;
71959;SDS011;59832;51.146;14.024;2024-01-15T06:57:32;13.13;;;7.00;;
71959;SDS011;59832;51.146;14.024;2024-01-15T06:59:59;11.35;;;6.50;;
71959;SDS011;59832;51.146;14.024;2024-01-15T07:02:25;12.85;;;6.63;;
71959;SDS011;59832;51.146;14.024;2024-01-15T07:04:53;13.23;;;6.70;;
71959;SDS011;59832;51.146;14.024;2024-01-15T07:07:19;14.60;;;7.35;;
71959;SDS011;59832;51.146;14.024;2024-01-15T07:09:45;13.85;;;6.93;;
71959;SDS011;59832;51.146;14.024;2024-01-15T07:12:12;11.52;;;6.63;;
71959;SDS011;59832;51.146;14.024;2024-01-15T07:14:39;19.20;;;7.07;;
71959;SDS011;59832;51.146;14.024;2024-01-15T07:17:05;15.27;;;7.32;;
71959;SDS011;59832;51.146;14.024;2024-01-15T07:19:32;12.60;;;6.78;;
71959;SDS011;59832;51.146;14.024;2024-01-15T07:21:59;12.40;;;6.83;;
71959;SDS011;59832;51.146;14.024;2024-01-15T07:24:26;14.68;;;6.68;;
71959;SDS011;59832;51.146;14.024;2024-01-15T07:26:53;14.10;;;7.07;;
71959;SDS011;59832;51.146;14.024;2024-01-15T07:29:19;15.60;;;6.82;;
71959;SDS011;59832;51.146;14.024;2024-01-15T07:31:49;14.65;;;7.20;;
71959;SDS011;59832;51.146;14.024;2024-01-15T07:34:16;21.75;;;9.35;;
71959;SDS011;59832;51.146;14.024;2024-01-15T07:36:44;24.83;;;9.43;;
71959;SDS011;59832;51.146;14.024;2024-01-15T07:39:11;22.60;;;10.68;;
71959;SDS011;59832;51.146;14.024;2024-01-15T07:41:38;24.50;;;9.75;;
71959;SDS011;59832;51.146;14.024;2024-01-15T07:44:04;15.32;;;7.88;;
71959;SDS011;59832;51.146;14.024;2024-01-15T07:46:31;14.52;;;7.57;;
71959;SDS011;59832;51.146;14.024;2024-01-15T07:48:58;17.15;;;7.47;;
71959;SDS011;59832;51.146;14.024;2024-01-15T07:51:24;16.77;;;7.47;;
71959;SDS011;59832;51.146;14.024;2024-01-15T07:53:53;13.02;;;6.78;;
71959;SDS011;59832;51.146;14.024;2024-01-15T07:56:20;17.02;;;7.68;;
71959;SDS011;59832;51.146;14.024;2024-01-15T07:58:47;16.23;;;7.85;;
71959;SDS011;59832;51.146;14.024;2024-01-15T08:01:14;19.13;;;8.35;;
71959;SDS011;59832;51.146;14.024;2024-01-15T08:03:40;19.75;;;8.18;;
71959;SDS011;59832;51.146;14.024;2024-01-15T08:06:07;19.15;;;8.55;;
71959;SDS011;59832;51.146;14.024;2024-01-15T08:08:36;17.10;;;8.10;;
71959;SDS011;59832;51.146;14.024;2024-01-15T08:11:03;19.60;;;8.13;;
71959;SDS011;59832;51.146;14.024;2024-01-15T08:13:30;14.80;;;8.07;;
71959;SDS011;59832;51.146;14.024;2024-01-15T08:15:57;15.57;;;7.85;;
71959;SDS011;59832;51.146;14.024;2024-01-15T08:18:23;18.30;;;7.93;;
71959;SDS011;59832;51.146;14.024;2024-01-15T08:20:50;16.30;;;8.17;;
71959;SDS011;59832;51.146;14.024;2024-01-15T08:23:17;14.15;;;7.32;;
71959;SDS011;59832;51.146;14.024;2024-01-15T08:25:44;16.80;;;7.80;;
71959;SDS011;59832;51.146;14.024;2024-01-15T08:28:10;13.85;;;7.07;;
71959;SDS011;59832;51.146;14.024;2024-01-15T08:30:37;15.05;;;7.97;;
71959;SDS011;59832;51.146;14.024;2024-01-15T08:33:04;17.27;;;8.17;;
71959;SDS011;59832;51.146;14.024;2024-01-15T08:35:44;17.98;;;7.25;;
71959;SDS011;59832;51.146;14.024;2024-01-15T08:38:11;12.55;;;7.00;;
71959;SDS011;59832;51.146;14.024;2024-01-15T08:40:38;14.77;;;6.43;;
71959;SDS011;59832;51.146;14.024;2024-01-15T08:43:04;13.00;;;7.00;;
71959;SDS011;59832;51.146;14.024;2024-01-15T08:45:32;12.65;;;6.35;;
71959;SDS011;59832;51.146;14.024;2024-01-15T08:47:59;15.55;;;6.97;;
71959;SDS011;59832;51.146;14.024;2024-01-15T08:50:27;14.48;;;6.38;;
71959;SDS011;59832;51.146;14.024;2024-01-15T08:52:53;10.38;;;5.93;;
71959;SDS011;59832;51.146;14.024;2024-01-15T08:55:20;11.10;;;6.40;;
71959;SDS011;59832;51.146;14.024;2024-01-15T08:57:48;12.48;;;6.47;;
71959;SDS011;59832;51.146;14.024;2024-01-15T09:00:16;14.38;;;6.72;;
71959;SDS011;59832;51.146;14.024;2024-01-15T09:02:42;14.07;;;6.78;;
71959;SDS011;59832;51.146;14.024;2024-01-15T09:05:09;14.80;;;7.22;;
71959;SDS011;59832;51.146;14.024;2024-01-15T09:07:36;14.37;;;6.90;;
71959;SDS011;59832;51.146;14.024;2024-01-15T09:10:03;14.15;;;6.55;;
71959;SDS011;59832;51.146;14.024;2024-01-15T09:12:29;13.90;;;6.67;;
71959;SDS011;59832;51.146;14.024;2024-01-15T09:14:56;11.00;;;6.07;;
71959;SDS011;59832;51.146;14.024;2024-01-15T09:17:22;14.90;;;6.07;;
71959;SDS011;59832;51.146;14.024;2024-01-15T09:19:54;11.85;;;6.15;;
71959;SDS011;59832;51.146;14.024;2024-01-15T09:22:20;20.35;;;7.32;;
71959;SDS011;59832;51.146;14.024;2024-01-15T09:24:47;14.02;;;6.47;;
71959;SDS011;59832;51.146;14.024;2024-01-15T09:27:14;15.20;;;6.57;;
71959;SDS011;59832;51.146;14.024;2024-01-15T09:29:41;12.70;;;5.95;;
71959;SDS011;59832;51.146;14.024;2024-01-15T09:32:09;13.50;;;6.20;;
71959;SDS011;59832;51.146;14.024;2024-01-15T09:34:35;12.35;;;6.40;;
71959;SDS011;59832;51.146;14.024;2024-01-15T09:37:02;12.87;;;6.10;;
71959;SDS011;59832;51.146;14.024;2024-01-15T09:39:31;15.10;;;6.10;;
71959;SDS011;59832;51.146;14.024;2024-01-15T09:41:58;12.57;;;5.85;;
71959;SDS011;59832;51.146;14.024;2024-01-15T09:44:25;9.02;;;5.10;;
71959;SDS011;59832;51.146;14.024;2024-01-15T09:46:52;9.07;;;5.55;;
71959;SDS011;59832;51.146;14.024;2024-01-15T09:49:21;13.52;;;6.18;;
71959;SDS011;59832;51.146;14.024;2024-01-15T09:51:48;10.82;;;6.03;;
71959;SDS011;59832;51.146;14.024;2024-01-15T09:54:28;13.63;;;5.65;;
71959;SDS011;59832;51.146;14.024;2024-01-15T09:56:55;13.20;;;6.22;;
71959;SDS011;59832;51.146;14.024;2024-01-15T09:59:22;10.60;;;5.55;;
71959;SDS011;59832;51.146;14.024;2024-01-15T10:01:48;10.27;;;5.65;;
71959;SDS011;59832;51.146;14.024;2024-01-15T10:06:44;12.10;;;6.30;;
71959;SDS011;59832;51.146;14.024;2024-01-15T10:09:12;11.32;;;5.95;;
71959;SDS011;59832;51.146;14.024;2024-01-15T10:11:41;11.30;;;5.82;;
71959;SDS011;59832;51.146;14.024;2024-01-15T10:14:09;11.10;;;5.15;;
71959;SDS011;59832;51.146;14.024;2024-01-15T10:16:39;10.40;;;5.13;;
71959;SDS011;59832;51.146;14.024;2024-01-15T10:19:05;12.07;;;5.53;;
71959;SDS011;59832;51.146;14.024;2024-01-15T10:21:32;11.27;;;5.33;;
71959;SDS011;59832;51.146;14.024;2024-01-15T10:24:02;14.50;;;5.22;;
71959;SDS011;59832;51.146;14.024;2024-01-15T10:26:30;11.35;;;5.20;;
71959;SDS011;59832;51.146;14.024;2024-01-15T10:28:58;13.57;;;5.25;;
71959;SDS011;59832;51.146;14.024;2024-01-15T10:31:27;12.25;;;5.53;;
71959;SDS011;59832;51.146;14.024;2024-01-15T10:34:09;10.13;;;5.20;;
71959;SDS011;59832;51.146;14.024;2024-01-15T10:36:41;12.60;;;5.30;;
71959;SDS011;59832;51.146;14.024;2024-01-15T10:39:07;8.90;;;4.63;;
71959;SDS011;59832;51.146;14.024;2024-01-15T10:41:34;10.02;;;5.35;;
71959;SDS011;59832;51.146;14.024;2024-01-15T10:44:01;15.63;;;6.07;;
71959;SDS011;59832;51.146;14.024;2024-01-15T10:46:27;12.27;;;5.78;;
71959;SDS011;59832;51.146;14.024;2024-01-15T10:48:55;8.85;;;4.60;;
71959;SDS011;59832;51.146;14.024;2024-01-15T10:51:21;7.93;;;5.20;;
71959;SDS011;59832;51.146;14.024;2024-01-15T10:53:49;10.82;;;5.13;;
71959;SDS011;59832;51.146;14.024;2024-01-15T10:56:16;8.52;;;4.45;;
71959;SDS011;59832;51.146;14.024;2024-01-15T10:58:44;18.33;;;6.78;;
71959;SDS011;59832;51.146;14.024;2024-01-15T11:01:11;13.60;;;5.40;;
71959;SDS011;59832;51.146;14.024;2024-01-15T11:03:39;11.30;;;4.55;;
71959;SDS011;59832;51.146;14.024;2024-01-15T11:06:15;11.27;;;5.43;;
71959;SDS011;59832;51.146;14.024;2024-01-15T11:08:48;16.40;;;5.60;;
71959;SDS011;59832;51.146;14.024;2024-01-15T11:11:16;13.55;;;5.50;;
71959;SDS011;59832;51.146;14.024;2024-01-15T11:16:13;8.48;;;4.55;;
71959;SDS011;59832;51.146;14.024;2024-01-15T11:18:42;7.55;;;4.90;;
71959;SDS011;59832;51.146;14.024;2024-01-15T11:23:42;11.65;;;5.05;;
71959;SDS011;59832;51.146;14.024;2024-01-15T11:26:26;10.60;;;5.45;;
71959;SDS011;59832;51.146;14.024;2024-01-15T11:29:05;9.18;;;4.43;;
71959;SDS011;59832;51.146;14.024;2024-01-15T11:34:06;13.05;;;4.97;;
71959;SDS011;59832;51.146;14.024;2024-01-15T11:41:54;9.27;;;4.97;;
71959;SDS011;59832;51.146;14.024;2024-01-15T11:44:21;9.25;;;4.45;;
71959;SDS011;59832;51.146;14.024;2024-01-15T11:47:01;12.88;;;5.30;;
71959;SDS011;59832;51.146;14.024;2024-01-15T11:52:03;11.77;;;5.28;;
71959;SDS011;59832;51.146;14.024;2024-01-15T11:57:00;11.50;;;5.05;;
71959;SDS011;59832;51.146;14.024;2024-01-15T11:59:35;10.27;;;5.43;;
71959;SDS011;59832;51.146;14.024;2024-01-15T12:02:02;9.38;;;5.28;;
71959;SDS011;59832;51.146;14.024;2024-01-15T12:04:29;9.43;;;4.80;;
71959;SDS011;59832;51.146;14.024;2024-01-15T12:06:55;10.40;;;5.20;;
71959;SDS011;59832;51.146;14.024;2024-01-15T12:09:22;10.67;;;4.80;;
71959;SDS011;59832;51.146;14.024;2024-01-15T12:11:51;10.48;;;4.80;;
71959;SDS011;59832;51.146;14.024;2024-01-15T12:14:26;9.70;;;4.63;;
71959;SDS011;59832;51.146;14.024;2024-01-15T12:16:54;9.88;;;4.63;;
71959;SDS011;59832;51.146;14.024;2024-01-15T12:19:20;9.67;;;4.63;;
71959;SDS011;59832;51.146;14.024;2024-01-15T12:21:47;12.48;;;6.03;;
71959;SDS011;59832;51.146;14.024;2024-01-15T12:24:14;11.15;;;4.40;;
71959;SDS011;59832;51.146;14.024;2024-01-15T12:26:41;13.32;;;5.60;;
71959;SDS011;59832;51.146;14.024;2024-01-15T12:29:07;13.25;;;4.57;;
71959;SDS011;59832;51.146;14.024;2024-01-15T12:31:34;11.15;;;4.90;;
71959;SDS011;59832;51.146;14.024;2024-01-15T12:34:01;7.23;;;4.50;;
71959;SDS011;59832;51.146;14.024;2024-01-15T12:36:30;12.45;;;5.40;;
71959;SDS011;59832;51.146;14.024;2024-01-15T12:39:00;10.80;;;5.15;;
71959;SDS011;59832;51.146;14.024;2024-01-15T12:41:27;10.23;;;4.90;;
71959;SDS011;59832;51.146;14.024;2024-01-15T12:43:53;11.57;;;5.05;;
71959;SDS011;59832;51.146;14.024;2024-01-15T12:46:20;12.20;;;5.33;;
71959;SDS011;59832;51.146;14.024;2024-01-15T12:48:46;8.60;;;4.70;;
71959;SDS011;59832;51.146;14.024;2024-01-15T12:51:13;9.15;;;5.20;;
71959;SDS011;59832;51.146;14.024;2024-01-15T12:53:41;13.02;;;5.50;;
71959;SDS011;59832;51.146;14.024;2024-01-15T12:56:08;10.18;;;5.28;;
71959;SDS011;59832;51.146;14.024;2024-01-15T12:58:34;11.77;;;5.20;;
71959;SDS011;59832;51.146;14.024;2024-01-15T13:01:00;12.77;;;5.50;;
71959;SDS011;59832;51.146;14.024;2024-01-15T13:03:27;10.90;;;5.30;;
71959;SDS011;59832;51.146;14.024;2024-01-15T13:05:54;10.50;;;5.18;;
71959;SDS011;59832;51.146;14.024;2024-01-15T13:08:20;10.80;;;5.80;;
71959;SDS011;59832;51.146;14.024;2024-01-15T13:10:50;14.43;;;5.50;;
71959;SDS011;59832;51.146;14.024;2024-01-15T13:13:18;9.27;;;5.13;;
71959;SDS011;59832;51.146;14.024;2024-01-15T13:15:44;11.82;;;5.38;;
71959;SDS011;59832;51.146;14.024;2024-01-15T13:18:10;14.65;;;5.53;;
71959;SDS011;59832;51.146;14.024;2024-01-15T13:20:37;12.40;;;5.15;;
71959;SDS011;59832;51.146;14.024;2024-01-15T13:23:03;12.88;;;5.10;;
71959;SDS011;59832;51.146;14.024;2024-01-15T13:25:30;10.77;;;4.90;;
71959;SDS011;59832;51.146;14.024;2024-01-15T13:27:57;13.70;;;5.65;;
71959;SDS011;59832;51.146;14.024;2024-01-15T13:30:23;11.20;;;5.38;;
71959;SDS011;59832;51.146;14.024;2024-01-15T13:32:50;12.30;;;5.88;;
71959;SDS011;59832;51.146;14.024;2024-01-15T13:35:16;11.93;;;5.45;;
71959;SDS011;59832;51.146;14.024;2024-01-15T13:37:43;12.10;;;5.13;;
71959;SDS011;59832;51.146;14.024;2024-01-15T13:40:09;12.35;;;5.32;;
71959;SDS011;59832;51.146;14.024;2024-01-15T13:42:42;12.25;;;5.32;;
71959;SDS011;59832;51.146;14.024;2024-01-15T13:45:09;13.52;;;5.35;;
71959;SDS011;59832;51.146;14.024;2024-01-15T13:47:35;10.02;;;4.97;;
71959;SDS011;59832;51.146;14.024;2024-01-15T13:50:03;11.38;;;5.72;;
71959;SDS011;59832;51.146;14.024;2024-01-15T13:52:30;11.73;;;6.10;;
71959;SDS011;59832;51.146;14.024;2024-01-15T13:54:57;20.40;;;6.22;;
71959;SDS011;59832;51.146;14.024;2024-01-15T13:57:23;14.98;;;5.80;;
71959;SDS011;59832;51.146;14.024;2024-01-15T13:59:50;15.02;;;6.30;;
71959;SDS011;59832;51.146;14.024;2024-01-15T14:02:16;11.23;;;5.95;;
71959;SDS011;59832;51.146;14.024;2024-01-15T14:04:47;10.50;;;5.82;;
71959;SDS011;59832;51.146;14.024;2024-01-15T14:07:14;13.55;;;5.38;;
71959;SDS011;59832;51.146;14.024;2024-01-15T14:09:41;15.75;;;6.10;;
71959;SDS011;59832;51.146;14.024;2024-01-15T14:12:08;12.47;;;5.70;;
71959;SDS011;59832;51.146;14.024;2024-01-15T14:14:34;14.02;;;5.53;;
71959;SDS011;59832;51.146;14.024;2024-01-15T14:17:01;12.25;;;5.35;;
71959;SDS011;59832;51.146;14.024;2024-01-15T14:19:27;8.65;;;5.07;;
71959;SDS011;59832;51.146;14.024;2024-01-15T14:21:54;12.18;;;7.05;;
71959;SDS011;59832;51.146;14.024;2024-01-15T14:24:21;11.98;;;6.47;;
71959;SDS011;59832;51.146;14.024;2024-01-15T14:26:48;13.43;;;6.82;;
71959;SDS011;59832;51.146;14.024;2024-01-15T14:29:14;16.25;;;9.60;;
71959;SDS011;59832;51.146;14.024;2024-01-15T14:31:41;20.50;;;7.50;;
71959;SDS011;59832;51.146;14.024;2024-01-15T14:34:08;15.00;;;7.40;;
71959;SDS011;59832;51.146;14.024;2024-01-15T14:36:34;12.73;;;6.70;;
71959;SDS011;59832;51.146;14.024;2024-01-15T14:39:01;12.50;;;6.93;;
71959;SDS011;59832;51.146;14.024;2024-01-15T14:41:28;13.80;;;6.53;;
71959;SDS011;59832;51.146;14.024;2024-01-15T14:43:55;16.35;;;8.82;;
71959;SDS011;59832;51.146;14.024;2024-01-15T14:48:49;13.50;;;6.83;;